sensor_id;sensor_type;location;lat;lon;timestamp;P1;durP1;ratioP1;P2;durP2;ratioP2
49217;SDS011;35045;51.194;7.268;2022-08-18T00:02:15;42.40;;;37.90;;
49217;SDS011;35045;51.194;7.268;2022-08-18T00:04:44;44.55;;;39.88;;
49217;SDS011;35045;51.194;7.268;2022-08-18T00:07:11;43.35;;;38.70;;
49217;SDS011;35045;51.194;7.268;2022-08-18T00:09:39;42.45;;;38.03;;
49217;SDS011;35045;51.194;7.268;2022-08-18T00:12:07;44.50;;;38.45;;
49217;SDS011;35045;51.194;7.268;2022-08-18T00:14:37;43.72;;;39.05;;
49217;SDS011;35045;51.194;7.268;2022-08-18T00:17:02;43.67;;;39.10;;
49217;SDS011;35045;51.194;7.268;2022-08-18T00:19:27;44.08;;;39.50;;
49217;SDS011;35045;51.194;7.268;2022-08-18T00:21:52;42.95;;;38.45;;
49217;SDS011;35045;51.194;7.268;2022-08-18T00:24:17;45.58;;;40.65;;
49217;SDS011;35045;51.194;7.268;2022-08-18T00:26:42;45.58;;;40.80;;
49217;SDS011;35045;51.194;7.268;2022-08-18T00:29:08;43.85;;;38.65;;
49217;SDS011;35045;51.194;7.268;2022-08-18T00:31:33;42.95;;;38.45;;
49217;SDS011;35045;51.194;7.268;2022-08-18T00:33:58;40.42;;;36.20;;
49217;SDS011;35045;51.194;7.268;2022-08-18T00:36:23;44.70;;;38.45;;
49217;SDS011;35045;51.194;7.268;2022-08-18T00:38:49;41.13;;;36.75;;
49217;SDS011;35045;51.194;7.268;2022-08-18T00:41:14;41.53;;;37.05;;
49217;SDS011;35045;51.194;7.268;2022-08-18T00:43:44;42.15;;;37.78;;
49217;SDS011;35045;51.194;7.268;2022-08-18T00:46:18;44.38;;;39.58;;
49217;SDS011;35045;51.194;7.268;2022-08-18T00:48:44;43.08;;;37.47;;
49217;SDS011;35045;51.194;7.268;2022-08-18T00:51:11;41.78;;;37.28;;
49217;SDS011;35045;51.194;7.268;2022-08-18T00:53:51;45.22;;;40.45;;
49217;SDS011;35045;51.194;7.268;2022-08-18T00:57:07;43.47;;;38.78;;
49217;SDS011;35045;51.194;7.268;2022-08-18T00:59:15;38.33;;;34.22;;
49217;SDS011;35045;51.194;7.268;2022-08-18T01:01:47;37.22;;;33.22;;
49217;SDS011;35045;51.194;7.268;2022-08-18T01:04:16;34.05;;;30.27;;
49217;SDS011;35045;51.194;7.268;2022-08-18T01:09:15;33.63;;;30.08;;
49217;SDS011;35045;51.194;7.268;2022-08-18T01:11:43;33.35;;;29.75;;
49217;SDS011;35045;51.194;7.268;2022-08-18T01:16:39;26.77;;;23.88;;
49217;SDS011;35045;51.194;7.268;2022-08-18T01:19:33;30.70;;;27.35;;
49217;SDS011;35045;51.194;7.268;2022-08-18T01:24:46;26.63;;;23.88;;
49217;SDS011;35045;51.194;7.268;2022-08-18T01:27:31;27.48;;;24.58;;
49217;SDS011;35045;51.194;7.268;2022-08-18T01:30:00;26.27;;;23.40;;
49217;SDS011;35045;51.194;7.268;2022-08-18T01:32:32;26.77;;;23.60;;
49217;SDS011;35045;51.194;7.268;2022-08-18T01:34:57;25.25;;;21.80;;
49217;SDS011;35045;51.194;7.268;2022-08-18T01:39:48;24.80;;;22.05;;
49217;SDS011;35045;51.194;7.268;2022-08-18T01:42:14;25.20;;;22.50;;
49217;SDS011;35045;51.194;7.268;2022-08-18T01:44:46;26.35;;;23.55;;
49217;SDS011;35045;51.194;7.268;2022-08-18T01:47:12;24.83;;;22.20;;
49217;SDS011;35045;51.194;7.268;2022-08-18T01:49:38;26.23;;;23.02;;
49217;SDS011;35045;51.194;7.268;2022-08-18T01:52:08;30.40;;;25.98;;
49217;SDS011;35045;51.194;7.268;2022-08-18T01:54:34;27.90;;;25.00;;
49217;SDS011;35045;51.194;7.268;2022-08-18T01:56:59;33.47;;;28.27;;
49217;SDS011;35045;51.194;7.268;2022-08-18T01:59:25;29.00;;;25.88;;
49217;SDS011;35045;51.194;7.268;2022-08-18T02:01:50;35.33;;;31.63;;
49217;SDS011;35045;51.194;7.268;2022-08-18T02:04:24;33.97;;;29.63;;
49217;SDS011;35045;51.194;7.268;2022-08-18T02:06:56;31.02;;;27.70;;
49217;SDS011;35045;51.194;7.268;2022-08-18T02:09:21;32.90;;;29.40;;
49217;SDS011;35045;51.194;7.268;2022-08-18T02:11:46;36.25;;;32.08;;
49217;SDS011;35045;51.194;7.268;2022-08-18T02:14:12;35.97;;;32.13;;
49217;SDS011;35045;51.194;7.268;2022-08-18T02:16:37;34.95;;;31.38;;
49217;SDS011;35045;51.194;7.268;2022-08-18T02:19:02;35.70;;;31.95;;
49217;SDS011;35045;51.194;7.268;2022-08-18T02:21:27;35.45;;;31.63;;
49217;SDS011;35045;51.194;7.268;2022-08-18T02:23:52;35.75;;;31.95;;
49217;SDS011;35045;51.194;7.268;2022-08-18T02:26:17;35.78;;;32.03;;
49217;SDS011;35045;51.194;7.268;2022-08-18T02:28:42;36.03;;;31.90;;
49217;SDS011;35045;51.194;7.268;2022-08-18T02:31:25;34.40;;;30.40;;
49217;SDS011;35045;51.194;7.268;2022-08-18T02:33:51;33.70;;;30.00;;
49217;SDS011;35045;51.194;7.268;2022-08-18T02:36:17;33.63;;;29.83;;
49217;SDS011;35045;51.194;7.268;2022-08-18T02:41:08;34.97;;;30.33;;
49217;SDS011;35045;51.194;7.268;2022-08-18T02:43:35;33.25;;;29.67;;
49217;SDS011;35045;51.194;7.268;2022-08-18T02:46:02;33.25;;;29.75;;
49217;SDS011;35045;51.194;7.268;2022-08-18T02:48:28;34.10;;;30.50;;
49217;SDS011;35045;51.194;7.268;2022-08-18T02:51:00;35.60;;;31.85;;
49217;SDS011;35045;51.194;7.268;2022-08-18T02:53:30;38.47;;;31.85;;
49217;SDS011;35045;51.194;7.268;2022-08-18T02:55:55;36.22;;;32.35;;
49217;SDS011;35045;51.194;7.268;2022-08-18T02:58:46;36.42;;;32.60;;
49217;SDS011;35045;51.194;7.268;2022-08-18T03:01:12;36.50;;;32.50;;
49217;SDS011;35045;51.194;7.268;2022-08-18T03:03:37;40.85;;;35.60;;
49217;SDS011;35045;51.194;7.268;2022-08-18T03:06:02;38.42;;;33.45;;
49217;SDS011;35045;51.194;7.268;2022-08-18T03:08:28;37.95;;;33.88;;
49217;SDS011;35045;51.194;7.268;2022-08-18T03:10:53;39.03;;;34.63;;
49217;SDS011;35045;51.194;7.268;2022-08-18T03:13:18;36.22;;;32.33;;
49217;SDS011;35045;51.194;7.268;2022-08-18T03:15:44;36.60;;;32.15;;
49217;SDS011;35045;51.194;7.268;2022-08-18T03:18:09;37.67;;;33.63;;
49217;SDS011;35045;51.194;7.268;2022-08-18T03:20:35;39.03;;;34.67;;
49217;SDS011;35045;51.194;7.268;2022-08-18T03:23:01;37.90;;;33.90;;
49217;SDS011;35045;51.194;7.268;2022-08-18T03:25:27;36.30;;;32.13;;
49217;SDS011;35045;51.194;7.268;2022-08-18T03:27:52;38.38;;;33.42;;
49217;SDS011;35045;51.194;7.268;2022-08-18T03:30:17;38.90;;;34.70;;
49217;SDS011;35045;51.194;7.268;2022-08-18T03:32:42;40.83;;;34.88;;
49217;SDS011;35045;51.194;7.268;2022-08-18T03:35:07;39.15;;;34.05;;
49217;SDS011;35045;51.194;7.268;2022-08-18T03:39:57;44.38;;;37.70;;
49217;SDS011;35045;51.194;7.268;2022-08-18T03:42:22;67.68;;;53.38;;
49217;SDS011;35045;51.194;7.268;2022-08-18T03:44:48;73.97;;;56.60;;
49217;SDS011;35045;51.194;7.268;2022-08-18T03:47:13;73.13;;;54.13;;
49217;SDS011;35045;51.194;7.268;2022-08-18T03:49:38;74.68;;;55.03;;
49217;SDS011;35045;51.194;7.268;2022-08-18T03:52:06;69.82;;;50.97;;
49217;SDS011;35045;51.194;7.268;2022-08-18T03:54:32;66.55;;;51.40;;
49217;SDS011;35045;51.194;7.268;2022-08-18T03:56:57;62.40;;;48.50;;
49217;SDS011;35045;51.194;7.268;2022-08-18T03:59:24;59.22;;;48.25;;
49217;SDS011;35045;51.194;7.268;2022-08-18T04:01:51;61.85;;;47.58;;
49217;SDS011;35045;51.194;7.268;2022-08-18T04:04:19;60.45;;;46.85;;
49217;SDS011;35045;51.194;7.268;2022-08-18T04:06:47;54.67;;;44.35;;
49217;SDS011;35045;51.194;7.268;2022-08-18T04:09:15;53.03;;;43.85;;
49217;SDS011;35045;51.194;7.268;2022-08-18T04:11:42;54.17;;;45.40;;
49217;SDS011;35045;51.194;7.268;2022-08-18T04:14:08;55.75;;;45.03;;
49217;SDS011;35045;51.194;7.268;2022-08-18T04:16:34;50.80;;;41.38;;
49217;SDS011;35045;51.194;7.268;2022-08-18T04:19:01;51.40;;;41.78;;
49217;SDS011;35045;51.194;7.268;2022-08-18T04:21:28;54.20;;;44.08;;
49217;SDS011;35045;51.194;7.268;2022-08-18T04:23:57;52.90;;;42.67;;
49217;SDS011;35045;51.194;7.268;2022-08-18T04:26:28;54.05;;;43.72;;
49217;SDS011;35045;51.194;7.268;2022-08-18T04:28:55;57.00;;;46.97;;
49217;SDS011;35045;51.194;7.268;2022-08-18T04:31:20;54.97;;;44.25;;
49217;SDS011;35045;51.194;7.268;2022-08-18T04:33:48;57.30;;;44.25;;
49217;SDS011;35045;51.194;7.268;2022-08-18T04:36:13;56.10;;;43.97;;
49217;SDS011;35045;51.194;7.268;2022-08-18T04:38:40;59.22;;;45.58;;
49217;SDS011;35045;51.194;7.268;2022-08-18T04:41:08;53.55;;;43.30;;
49217;SDS011;35045;51.194;7.268;2022-08-18T04:43:34;56.60;;;45.45;;
49217;SDS011;35045;51.194;7.268;2022-08-18T04:48:31;59.80;;;48.00;;
49217;SDS011;35045;51.194;7.268;2022-08-18T04:50:57;56.22;;;46.55;;
49217;SDS011;35045;51.194;7.268;2022-08-18T04:53:26;56.13;;;43.97;;
49217;SDS011;35045;51.194;7.268;2022-08-18T04:56:14;47.88;;;39.30;;
49217;SDS011;35045;51.194;7.268;2022-08-18T04:58:49;50.45;;;41.58;;
49217;SDS011;35045;51.194;7.268;2022-08-18T05:01:15;46.80;;;38.35;;
49217;SDS011;35045;51.194;7.268;2022-08-18T05:06:05;46.35;;;38.67;;
49217;SDS011;35045;51.194;7.268;2022-08-18T05:08:31;44.90;;;35.08;;
49217;SDS011;35045;51.194;7.268;2022-08-18T05:10:56;46.42;;;38.40;;
49217;SDS011;35045;51.194;7.268;2022-08-18T05:13:21;50.88;;;39.60;;
49217;SDS011;35045;51.194;7.268;2022-08-18T05:15:51;50.55;;;41.42;;
49217;SDS011;35045;51.194;7.268;2022-08-18T05:18:21;49.30;;;40.17;;
49217;SDS011;35045;51.194;7.268;2022-08-18T05:20:52;51.53;;;40.50;;
49217;SDS011;35045;51.194;7.268;2022-08-18T05:23:19;52.30;;;42.88;;
49217;SDS011;35045;51.194;7.268;2022-08-18T05:25:45;51.08;;;41.35;;
49217;SDS011;35045;51.194;7.268;2022-08-18T05:28:10;53.88;;;42.60;;
49217;SDS011;35045;51.194;7.268;2022-08-18T05:30:36;58.08;;;44.50;;
49217;SDS011;35045;51.194;7.268;2022-08-18T05:33:01;60.95;;;46.67;;
49217;SDS011;35045;51.194;7.268;2022-08-18T05:35:29;59.65;;;46.17;;
49217;SDS011;35045;51.194;7.268;2022-08-18T05:40:32;60.33;;;48.05;;
49217;SDS011;35045;51.194;7.268;2022-08-18T05:42:58;61.90;;;45.72;;
49217;SDS011;35045;51.194;7.268;2022-08-18T05:47:49;60.60;;;45.80;;
49217;SDS011;35045;51.194;7.268;2022-08-18T05:50:18;61.92;;;47.17;;
49217;SDS011;35045;51.194;7.268;2022-08-18T05:52:57;61.67;;;45.97;;
49217;SDS011;35045;51.194;7.268;2022-08-18T05:55:39;65.40;;;49.25;;
49217;SDS011;35045;51.194;7.268;2022-08-18T05:58:44;60.88;;;45.63;;
49217;SDS011;35045;51.194;7.268;2022-08-18T06:01:18;60.22;;;45.47;;
49217;SDS011;35045;51.194;7.268;2022-08-18T06:03:54;53.67;;;41.28;;
49217;SDS011;35045;51.194;7.268;2022-08-18T06:06:27;45.13;;;33.63;;
49217;SDS011;35045;51.194;7.268;2022-08-18T06:11:22;41.05;;;31.45;;
49217;SDS011;35045;51.194;7.268;2022-08-18T06:13:47;36.72;;;29.80;;
49217;SDS011;35045;51.194;7.268;2022-08-18T06:16:16;37.97;;;29.30;;
49217;SDS011;35045;51.194;7.268;2022-08-18T06:18:58;38.35;;;30.85;;
49217;SDS011;35045;51.194;7.268;2022-08-18T06:21:49;37.55;;;30.15;;
49217;SDS011;35045;51.194;7.268;2022-08-18T06:24:30;36.83;;;28.33;;
49217;SDS011;35045;51.194;7.268;2022-08-18T06:32:31;32.60;;;25.55;;
49217;SDS011;35045;51.194;7.268;2022-08-18T06:35:28;32.50;;;25.00;;
49217;SDS011;35045;51.194;7.268;2022-08-18T06:41:08;32.28;;;25.90;;
49217;SDS011;35045;51.194;7.268;2022-08-18T06:43:34;31.65;;;24.60;;
49217;SDS011;35045;51.194;7.268;2022-08-18T06:46:04;34.58;;;26.88;;
49217;SDS011;35045;51.194;7.268;2022-08-18T06:48:41;31.92;;;25.58;;
49217;SDS011;35045;51.194;7.268;2022-08-18T06:51:11;35.22;;;26.92;;
49217;SDS011;35045;51.194;7.268;2022-08-18T06:54:00;33.65;;;25.73;;
49217;SDS011;35045;51.194;7.268;2022-08-18T07:01:38;38.85;;;29.67;;
49217;SDS011;35045;51.194;7.268;2022-08-18T07:04:03;38.38;;;28.65;;
49217;SDS011;35045;51.194;7.268;2022-08-18T07:06:29;38.42;;;28.77;;
49217;SDS011;35045;51.194;7.268;2022-08-18T07:08:55;38.15;;;27.90;;
49217;SDS011;35045;51.194;7.268;2022-08-18T07:12:18;40.17;;;29.60;;
49217;SDS011;35045;51.194;7.268;2022-08-18T07:14:46;39.97;;;29.50;;
49217;SDS011;35045;51.194;7.268;2022-08-18T07:17:21;38.45;;;29.48;;
49217;SDS011;35045;51.194;7.268;2022-08-18T07:20:07;37.55;;;28.95;;
49217;SDS011;35045;51.194;7.268;2022-08-18T07:23:00;40.50;;;30.00;;
49217;SDS011;35045;51.194;7.268;2022-08-18T07:25:37;44.65;;;31.60;;
49217;SDS011;35045;51.194;7.268;2022-08-18T07:32:58;47.08;;;34.72;;
49217;SDS011;35045;51.194;7.268;2022-08-18T07:35:52;45.70;;;33.20;;
49217;SDS011;35045;51.194;7.268;2022-08-18T07:38:25;45.20;;;31.60;;
49217;SDS011;35045;51.194;7.268;2022-08-18T07:43:35;42.72;;;32.40;;
49217;SDS011;35045;51.194;7.268;2022-08-18T07:46:15;45.03;;;32.97;;
49217;SDS011;35045;51.194;7.268;2022-08-18T07:49:01;40.38;;;32.05;;
49217;SDS011;35045;51.194;7.268;2022-08-18T07:51:28;40.97;;;32.22;;
49217;SDS011;35045;51.194;7.268;2022-08-18T07:54:12;44.88;;;33.10;;
49217;SDS011;35045;51.194;7.268;2022-08-18T08:04:46;43.70;;;34.42;;
49217;SDS011;35045;51.194;7.268;2022-08-18T08:07:28;46.78;;;34.45;;
49217;SDS011;35045;51.194;7.268;2022-08-18T08:10:09;45.50;;;34.92;;
49217;SDS011;35045;51.194;7.268;2022-08-18T08:18:50;46.55;;;33.95;;
49217;SDS011;35045;51.194;7.268;2022-08-18T08:21:36;47.15;;;35.45;;
49217;SDS011;35045;51.194;7.268;2022-08-18T08:24:25;45.25;;;34.22;;
49217;SDS011;35045;51.194;7.268;2022-08-18T08:27:07;46.58;;;35.08;;
49217;SDS011;35045;51.194;7.268;2022-08-18T08:30:19;47.03;;;36.28;;
49217;SDS011;35045;51.194;7.268;2022-08-18T08:32:31;45.25;;;34.13;;
49217;SDS011;35045;51.194;7.268;2022-08-18T08:35:03;47.17;;;35.20;;
49217;SDS011;35045;51.194;7.268;2022-08-18T08:37:45;44.13;;;34.25;;
49217;SDS011;35045;51.194;7.268;2022-08-18T08:40:16;45.03;;;34.67;;
49217;SDS011;35045;51.194;7.268;2022-08-18T08:42:47;45.47;;;34.17;;
49217;SDS011;35045;51.194;7.268;2022-08-18T08:47:58;43.55;;;34.92;;
49217;SDS011;35045;51.194;7.268;2022-08-18T08:50:33;43.92;;;33.15;;
49217;SDS011;35045;51.194;7.268;2022-08-18T08:53:14;41.50;;;30.83;;
49217;SDS011;35045;51.194;7.268;2022-08-18T08:55:54;41.20;;;31.80;;
49217;SDS011;35045;51.194;7.268;2022-08-18T08:58:31;41.25;;;32.03;;
49217;SDS011;35045;51.194;7.268;2022-08-18T09:01:03;39.22;;;31.52;;
49217;SDS011;35045;51.194;7.268;2022-08-18T09:08:46;39.80;;;31.52;;
49217;SDS011;35045;51.194;7.268;2022-08-18T09:11:43;39.90;;;31.13;;
49217;SDS011;35045;51.194;7.268;2022-08-18T09:14:35;40.33;;;31.75;;
49217;SDS011;35045;51.194;7.268;2022-08-18T09:23:20;39.77;;;32.30;;
49217;SDS011;35045;51.194;7.268;2022-08-18T09:25:49;43.63;;;32.58;;
49217;SDS011;35045;51.194;7.268;2022-08-18T09:28:18;39.97;;;31.90;;
49217;SDS011;35045;51.194;7.268;2022-08-18T09:33:32;39.83;;;31.35;;
49217;SDS011;35045;51.194;7.268;2022-08-18T09:38:55;39.50;;;31.67;;
49217;SDS011;35045;51.194;7.268;2022-08-18T09:41:57;37.15;;;29.63;;
49217;SDS011;35045;51.194;7.268;2022-08-18T09:47:09;34.42;;;27.23;;
49217;SDS011;35045;51.194;7.268;2022-08-18T09:49:41;34.78;;;27.40;;
49217;SDS011;35045;51.194;7.268;2022-08-18T09:57:36;37.45;;;27.02;;
49217;SDS011;35045;51.194;7.268;2022-08-18T10:07:40;36.17;;;28.17;;
49217;SDS011;35045;51.194;7.268;2022-08-18T10:10:24;33.92;;;26.83;;
49217;SDS011;35045;51.194;7.268;2022-08-18T10:12:52;31.23;;;25.05;;
49217;SDS011;35045;51.194;7.268;2022-08-18T10:18:15;31.48;;;25.15;;
49217;SDS011;35045;51.194;7.268;2022-08-18T10:26:05;37.20;;;27.55;;
49217;SDS011;35045;51.194;7.268;2022-08-18T10:29:01;36.50;;;27.27;;
49217;SDS011;35045;51.194;7.268;2022-08-18T10:31:38;33.35;;;25.65;;
49217;SDS011;35045;51.194;7.268;2022-08-18T10:34:35;38.33;;;28.45;;
49217;SDS011;35045;51.194;7.268;2022-08-18T10:39:50;41.97;;;31.40;;
49217;SDS011;35045;51.194;7.268;2022-08-18T10:42:30;36.72;;;28.77;;
49217;SDS011;35045;51.194;7.268;2022-08-18T10:45:24;39.03;;;29.50;;
49217;SDS011;35045;51.194;7.268;2022-08-18T10:58:57;44.08;;;32.65;;
49217;SDS011;35045;51.194;7.268;2022-08-18T11:01:33;42.67;;;31.30;;
49217;SDS011;35045;51.194;7.268;2022-08-18T11:04:25;46.83;;;34.65;;
49217;SDS011;35045;51.194;7.268;2022-08-18T11:07:00;45.63;;;32.85;;
49217;SDS011;35045;51.194;7.268;2022-08-18T11:09:29;45.22;;;34.17;;
49217;SDS011;35045;51.194;7.268;2022-08-18T11:11:56;44.88;;;34.58;;
49217;SDS011;35045;51.194;7.268;2022-08-18T11:17:14;45.55;;;34.28;;
49217;SDS011;35045;51.194;7.268;2022-08-18T11:19:59;45.55;;;34.63;;
49217;SDS011;35045;51.194;7.268;2022-08-18T11:24:52;43.13;;;33.28;;
49217;SDS011;35045;51.194;7.268;2022-08-18T11:27:19;39.78;;;31.63;;
49217;SDS011;35045;51.194;7.268;2022-08-18T11:29:49;42.05;;;33.00;;
49217;SDS011;35045;51.194;7.268;2022-08-18T11:32:22;39.08;;;30.48;;
49217;SDS011;35045;51.194;7.268;2022-08-18T11:37:24;42.22;;;33.17;;
49217;SDS011;35045;51.194;7.268;2022-08-18T11:39:59;42.88;;;33.08;;
49217;SDS011;35045;51.194;7.268;2022-08-18T11:42:30;43.90;;;34.80;;
49217;SDS011;35045;51.194;7.268;2022-08-18T11:45:17;43.80;;;33.38;;
49217;SDS011;35045;51.194;7.268;2022-08-18T11:50:43;39.28;;;31.40;;
49217;SDS011;35045;51.194;7.268;2022-08-18T11:56:11;40.90;;;31.83;;
49217;SDS011;35045;51.194;7.268;2022-08-18T11:58:45;37.33;;;30.88;;
49217;SDS011;35045;51.194;7.268;2022-08-18T12:06:37;30.55;;;25.25;;
49217;SDS011;35045;51.194;7.268;2022-08-18T12:14:59;31.85;;;26.20;;
49217;SDS011;35045;51.194;7.268;2022-08-18T12:17:47;33.28;;;28.27;;
49217;SDS011;35045;51.194;7.268;2022-08-18T12:22:39;30.35;;;24.73;;
49217;SDS011;35045;51.194;7.268;2022-08-18T12:25:07;33.63;;;27.30;;
49217;SDS011;35045;51.194;7.268;2022-08-18T12:27:35;30.77;;;25.58;;
49217;SDS011;35045;51.194;7.268;2022-08-18T12:32:26;33.40;;;28.83;;
49217;SDS011;35045;51.194;7.268;2022-08-18T12:34:53;35.05;;;29.63;;
49217;SDS011;35045;51.194;7.268;2022-08-18T12:37:20;32.13;;;27.10;;
49217;SDS011;35045;51.194;7.268;2022-08-18T12:39:46;33.85;;;24.70;;
49217;SDS011;35045;51.194;7.268;2022-08-18T12:42:11;31.70;;;26.60;;
49217;SDS011;35045;51.194;7.268;2022-08-18T12:44:37;33.75;;;27.45;;
49217;SDS011;35045;51.194;7.268;2022-08-18T12:47:06;29.85;;;26.15;;
49217;SDS011;35045;51.194;7.268;2022-08-18T12:49:35;31.58;;;27.02;;
49217;SDS011;35045;51.194;7.268;2022-08-18T12:52:00;33.88;;;27.75;;
49217;SDS011;35045;51.194;7.268;2022-08-18T12:54:26;32.53;;;28.10;;
49217;SDS011;35045;51.194;7.268;2022-08-18T12:56:52;31.35;;;26.23;;
49217;SDS011;35045;51.194;7.268;2022-08-18T12:59:19;30.60;;;25.77;;
49217;SDS011;35045;51.194;7.268;2022-08-18T13:04:09;29.42;;;26.10;;
49217;SDS011;35045;51.194;7.268;2022-08-18T13:06:35;29.95;;;26.65;;
49217;SDS011;35045;51.194;7.268;2022-08-18T13:09:04;29.35;;;26.00;;
49217;SDS011;35045;51.194;7.268;2022-08-18T13:13:54;32.42;;;26.70;;
49217;SDS011;35045;51.194;7.268;2022-08-18T13:16:19;31.42;;;28.02;;
49217;SDS011;35045;51.194;7.268;2022-08-18T13:18:45;33.72;;;28.45;;
49217;SDS011;35045;51.194;7.268;2022-08-18T13:21:11;31.77;;;27.60;;
49217;SDS011;35045;51.194;7.268;2022-08-18T13:23:37;28.83;;;25.67;;
49217;SDS011;35045;51.194;7.268;2022-08-18T13:26:04;29.33;;;26.13;;
49217;SDS011;35045;51.194;7.268;2022-08-18T13:28:32;28.75;;;25.73;;
49217;SDS011;35045;51.194;7.268;2022-08-18T13:30:57;27.38;;;24.40;;
49217;SDS011;35045;51.194;7.268;2022-08-18T13:33:23;28.08;;;25.02;;
49217;SDS011;35045;51.194;7.268;2022-08-18T13:35:48;28.98;;;23.77;;
49217;SDS011;35045;51.194;7.268;2022-08-18T13:38:15;28.80;;;25.77;;
49217;SDS011;35045;51.194;7.268;2022-08-18T13:40:43;28.20;;;25.15;;
49217;SDS011;35045;51.194;7.268;2022-08-18T13:43:08;29.70;;;25.27;;
49217;SDS011;35045;51.194;7.268;2022-08-18T13:45:35;29.08;;;25.98;;
49217;SDS011;35045;51.194;7.268;2022-08-18T13:50:24;27.92;;;24.95;;
49217;SDS011;35045;51.194;7.268;2022-08-18T13:55:16;29.20;;;26.02;;
49217;SDS011;35045;51.194;7.268;2022-08-18T13:57:42;27.98;;;24.27;;
49217;SDS011;35045;51.194;7.268;2022-08-18T14:00:11;27.25;;;24.35;;
49217;SDS011;35045;51.194;7.268;2022-08-18T14:02:39;33.28;;;29.38;;
49217;SDS011;35045;51.194;7.268;2022-08-18T14:05:04;34.65;;;27.25;;
49217;SDS011;35045;51.194;7.268;2022-08-18T14:07:30;32.47;;;28.98;;
49217;SDS011;35045;51.194;7.268;2022-08-18T14:12:22;31.10;;;27.47;;
49217;SDS011;35045;51.194;7.268;2022-08-18T14:14:47;32.17;;;27.17;;
49217;SDS011;35045;51.194;7.268;2022-08-18T14:17:13;32.58;;;29.13;;
49217;SDS011;35045;51.194;7.268;2022-08-18T14:19:38;31.30;;;27.70;;
49217;SDS011;35045;51.194;7.268;2022-08-18T14:22:22;35.30;;;29.55;;
49217;SDS011;35045;51.194;7.268;2022-08-18T14:25:06;34.67;;;30.98;;
49217;SDS011;35045;51.194;7.268;2022-08-18T14:27:49;32.85;;;29.35;;
49217;SDS011;35045;51.194;7.268;2022-08-18T14:32:41;35.10;;;29.83;;
49217;SDS011;35045;51.194;7.268;2022-08-18T14:37:33;31.95;;;28.55;;
49217;SDS011;35045;51.194;7.268;2022-08-18T14:42:24;33.85;;;30.15;;
49217;SDS011;35045;51.194;7.268;2022-08-18T14:44:49;31.50;;;28.10;;
49217;SDS011;35045;51.194;7.268;2022-08-18T14:47:15;31.48;;;28.17;;
49217;SDS011;35045;51.194;7.268;2022-08-18T14:49:40;34.67;;;30.92;;
49217;SDS011;35045;51.194;7.268;2022-08-18T14:52:06;31.95;;;28.35;;
49217;SDS011;35045;51.194;7.268;2022-08-18T14:56:57;29.33;;;26.15;;
49217;SDS011;35045;51.194;7.268;2022-08-18T14:59:25;31.17;;;27.63;;
49217;SDS011;35045;51.194;7.268;2022-08-18T15:01:51;31.45;;;27.42;;
49217;SDS011;35045;51.194;7.268;2022-08-18T15:04:17;35.15;;;28.63;;
49217;SDS011;35045;51.194;7.268;2022-08-18T15:06:42;31.13;;;27.75;;
49217;SDS011;35045;51.194;7.268;2022-08-18T15:11:32;29.02;;;25.75;;
49217;SDS011;35045;51.194;7.268;2022-08-18T15:13:57;30.15;;;27.00;;
49217;SDS011;35045;51.194;7.268;2022-08-18T15:16:24;28.05;;;24.92;;
49217;SDS011;35045;51.194;7.268;2022-08-18T15:21:14;26.77;;;23.90;;
49217;SDS011;35045;51.194;7.268;2022-08-18T15:23:58;27.42;;;24.33;;
49217;SDS011;35045;51.194;7.268;2022-08-18T15:26:41;29.40;;;22.95;;
49217;SDS011;35045;51.194;7.268;2022-08-18T15:29:07;23.25;;;20.95;;
49217;SDS011;35045;51.194;7.268;2022-08-18T15:31:33;23.30;;;20.85;;
49217;SDS011;35045;51.194;7.268;2022-08-18T15:33:59;25.65;;;22.65;;
49217;SDS011;35045;51.194;7.268;2022-08-18T15:36:24;22.15;;;19.85;;
49217;SDS011;35045;51.194;7.268;2022-08-18T15:38:50;23.40;;;20.10;;
49217;SDS011;35045;51.194;7.268;2022-08-18T15:41:27;23.35;;;21.02;;
49217;SDS011;35045;51.194;7.268;2022-08-18T15:43:55;26.48;;;22.33;;
49217;SDS011;35045;51.194;7.268;2022-08-18T15:48:45;23.43;;;21.03;;
49217;SDS011;35045;51.194;7.268;2022-08-18T15:53:35;22.92;;;20.45;;
49217;SDS011;35045;51.194;7.268;2022-08-18T15:56:01;22.92;;;20.63;;
49217;SDS011;35045;51.194;7.268;2022-08-18T15:58:26;23.88;;;21.45;;
49217;SDS011;35045;51.194;7.268;2022-08-18T16:03:17;20.20;;;18.23;;
49217;SDS011;35045;51.194;7.268;2022-08-18T16:05:45;21.50;;;19.25;;
49217;SDS011;35045;51.194;7.268;2022-08-18T16:08:16;21.52;;;19.42;;
49217;SDS011;35045;51.194;7.268;2022-08-18T16:10:42;20.55;;;18.45;;
49217;SDS011;35045;51.194;7.268;2022-08-18T16:13:10;20.63;;;18.42;;
49217;SDS011;35045;51.194;7.268;2022-08-18T16:15:38;19.77;;;17.77;;
49217;SDS011;35045;51.194;7.268;2022-08-18T16:18:05;18.85;;;16.85;;
49217;SDS011;35045;51.194;7.268;2022-08-18T16:20:31;18.67;;;16.92;;
49217;SDS011;35045;51.194;7.268;2022-08-18T16:22:56;18.38;;;16.50;;
49217;SDS011;35045;51.194;7.268;2022-08-18T16:25:22;19.05;;;17.15;;
49217;SDS011;35045;51.194;7.268;2022-08-18T16:27:48;17.67;;;15.80;;
49217;SDS011;35045;51.194;7.268;2022-08-18T16:30:15;19.25;;;17.13;;
49217;SDS011;35045;51.194;7.268;2022-08-18T16:32:42;19.23;;;17.25;;
49217;SDS011;35045;51.194;7.268;2022-08-18T16:35:08;19.15;;;17.20;;
49217;SDS011;35045;51.194;7.268;2022-08-18T16:37:34;18.23;;;16.42;;
49217;SDS011;35045;51.194;7.268;2022-08-18T16:42:24;16.27;;;14.57;;
49217;SDS011;35045;51.194;7.268;2022-08-18T16:44:49;17.48;;;15.02;;
49217;SDS011;35045;51.194;7.268;2022-08-18T16:49:41;17.13;;;15.43;;
49217;SDS011;35045;51.194;7.268;2022-08-18T16:52:08;16.52;;;14.88;;
49217;SDS011;35045;51.194;7.268;2022-08-18T16:56:58;18.67;;;16.77;;
49217;SDS011;35045;51.194;7.268;2022-08-18T16:59:23;15.15;;;13.60;;
49217;SDS011;35045;51.194;7.268;2022-08-18T17:02:07;15.05;;;13.43;;
49217;SDS011;35045;51.194;7.268;2022-08-18T17:04:58;15.98;;;14.48;;
49217;SDS011;35045;51.194;7.268;2022-08-18T17:07:26;15.00;;;13.40;;
49217;SDS011;35045;51.194;7.268;2022-08-18T17:09:51;14.98;;;13.50;;
49217;SDS011;35045;51.194;7.268;2022-08-18T17:12:16;16.48;;;14.82;;
49217;SDS011;35045;51.194;7.268;2022-08-18T17:14:41;16.65;;;14.95;;
49217;SDS011;35045;51.194;7.268;2022-08-18T17:17:06;14.63;;;13.13;;
49217;SDS011;35045;51.194;7.268;2022-08-18T17:19:32;15.25;;;13.65;;
49217;SDS011;35045;51.194;7.268;2022-08-18T17:21:59;14.60;;;13.10;;
49217;SDS011;35045;51.194;7.268;2022-08-18T17:24:25;15.65;;;13.98;;
49217;SDS011;35045;51.194;7.268;2022-08-18T17:27:26;16.00;;;14.40;;
49217;SDS011;35045;51.194;7.268;2022-08-18T17:29:48;15.63;;;14.02;;
49217;SDS011;35045;51.194;7.268;2022-08-18T17:32:22;16.00;;;14.40;;
49217;SDS011;35045;51.194;7.268;2022-08-18T17:35:24;16.85;;;15.15;;
49217;SDS011;35045;51.194;7.268;2022-08-18T17:38:09;15.20;;;13.60;;
49217;SDS011;35045;51.194;7.268;2022-08-18T17:40:57;15.35;;;13.75;;
49217;SDS011;35045;51.194;7.268;2022-08-18T17:43:32;14.40;;;12.75;;
49217;SDS011;35045;51.194;7.268;2022-08-18T17:46:37;17.80;;;14.68;;
49217;SDS011;35045;51.194;7.268;2022-08-18T17:48:59;15.93;;;14.30;;
49217;SDS011;35045;51.194;7.268;2022-08-18T17:51:34;16.30;;;14.57;;
49217;SDS011;35045;51.194;7.268;2022-08-18T17:54:26;15.70;;;14.10;;